Time;durP1;ratioP1;P1;durP2;ratioP2;P2;SDS_P1;SDS_P2;PMS_P1;PMS_P2;Temp;Humidity;BMP_temperature;BMP_pressure;BME280_temperature;BME280_humidity;BME280_pressure;Samples;Min_cycle;Max_cycle;Signal;HPM_P1;HPM_P2
2023/05/10 00:01:31;;;;;;;7.00;6.50;;;;;;;;;;5006353;28;20547;-76
2023/05/10 00:03:57;;;;;;;6.20;5.70;;;;;;;;;;5006035;28;20017;-77
2023/05/10 00:06:22;;;;;;;6.47;6.07;;;;;;;;;;5002835;28;20033;-77
2023/05/10 00:08:47;;;;;;;7.07;6.57;;;;;;;;;;4989006;28;20034;-77
2023/05/10 00:11:13;;;;;;;6.38;5.93;;;;;;;;;;5005295;28;20034;-77
2023/05/10 00:13:38;;;;;;;8.90;8.20;;;;;;;;;;4993661;28;20125;-77
2023/05/10 00:16:04;;;;;;;7.10;6.60;;;;;;;;;;5005894;28;20022;-77
2023/05/10 00:18:29;;;;;;;9.32;8.52;;;;;;;;;;4994706;28;20018;-77
2023/05/10 00:20:55;;;;;;;7.00;6.50;;;;;;;;;;4990159;28;20460;-77
2023/05/10 00:23:20;;;;;;;8.25;7.75;;;;;;;;;;4988191;28;20091;-77
2023/05/10 00:25:45;;;;;;;9.10;8.25;;;;;;;;;;5005463;28;20045;-77
2023/05/10 00:28:11;;;;;;;10.52;9.77;;;;;;;;;;5006186;28;20056;-77
2023/05/10 00:30:36;;;;;;;8.50;7.70;;;;;;;;;;5005690;28;20024;-77
2023/05/10 00:33:01;;;;;;;8.45;7.85;;;;;;;;;;5006858;28;20257;-77
2023/05/10 00:35:27;;;;;;;7.68;7.18;;;;;;;;;;5007252;28;20053;-78
2023/05/10 00:37:52;;;;;;;7.57;7.07;;;;;;;;;;4990083;28;20058;-77
2023/05/10 00:40:17;;;;;;;5.90;5.50;;;;;;;;;;4984639;28;20034;-77
2023/05/10 00:42:42;;;;;;;7.50;6.95;;;;;;;;;;4985640;28;20038;-77
2023/05/10 00:45:08;;;;;;;7.68;7.18;;;;;;;;;;5003942;28;20034;-78
2023/05/10 00:47:34;;;;;;;8.65;7.95;;;;;;;;;;5002986;28;20472;-77
2023/05/10 00:50:00;;;;;;;8.65;7.95;;;;;;;;;;5002823;28;20029;-77
2023/05/10 00:52:27;;;;;;;7.82;7.32;;;;;;;;;;5002974;28;20030;-78
2023/05/10 00:54:52;;;;;;;7.63;7.13;;;;;;;;;;5001181;28;20034;-79
2023/05/10 00:57:22;;;;;;;7.70;7.10;;;;;;;;;;4995444;28;20380;-80
2023/05/10 00:59:57;;;;;;;7.40;6.90;;;;;;;;;;4995967;28;20117;-78
2023/05/10 01:02:29;;;;;;;7.43;6.93;;;;;;;;;;5017239;28;20249;-80
2023/05/10 01:04:56;;;;;;;8.15;7.43;;;;;;;;;;5017303;28;20025;-79
2023/05/10 01:07:21;;;;;;;6.78;6.28;;;;;;;;;;4998270;28;20038;-81
2023/05/10 01:09:46;;;;;;;6.38;5.93;;;;;;;;;;4980152;28;20027;-79
2023/05/10 01:12:17;;;;;;;7.43;6.80;;;;;;;;;;5010652;28;20014;-80
2023/05/10 01:14:43;;;;;;;8.57;7.78;;;;;;;;;;4991383;28;20025;-79
2023/05/10 01:17:09;;;;;;;7.72;7.22;;;;;;;;;;4999688;28;20022;-79
2023/05/10 01:19:36;;;;;;;8.07;7.47;;;;;;;;;;5001765;28;20010;-79
2023/05/10 01:22:21;;;;;;;6.85;6.38;;;;;;;;;;5009560;28;20530;-80
2023/05/10 01:24:46;;;;;;;8.63;7.95;;;;;;;;;;4976077;28;20037;-79
2023/05/10 01:27:30;;;;;;;10.00;7.37;;;;;;;;;;5002431;28;20093;-81
2023/05/10 01:30:14;;;;;;;10.10;9.35;;;;;;;;;;5003028;28;20281;-79
2023/05/10 01:32:58;;;;;;;11.10;7.65;;;;;;;;;;5005356;28;20079;-79
2023/05/10 01:35:32;;;;;;;7.30;6.80;;;;;;;;;;5010139;28;20093;-80
2023/05/10 01:37:57;;;;;;;8.20;7.68;;;;;;;;;;4997919;28;20042;-80
2023/05/10 01:40:48;;;;;;;8.55;7.85;;;;;;;;;;5008107;28;20028;-80
2023/05/10 01:43:28;;;;;;;8.88;8.18;;;;;;;;;;4989424;28;20027;-80
2023/05/10 01:48:47;;;;;;;7.45;6.82;;;;;;;;;;5423670;23;20062;-81
2023/05/10 01:51:15;;;;;;;6.57;6.10;;;;;;;;;;4992868;28;20045;-78
2023/05/10 01:53:47;;;;;;;5.30;4.90;;;;;;;;;;5193260;23;20046;-79
2023/05/10 01:58:57;;;;;;;5.25;4.75;;;;;;;;;;5585801;23;19925;-79
2023/05/10 02:01:29;;;;;;;6.32;5.93;;;;;;;;;;4989849;28;20010;-80
2023/05/10 02:03:55;;;;;;;6.43;5.93;;;;;;;;;;4984943;28;20022;-78
2023/05/10 02:12:33;;;;;;;5.55;5.05;;;;;;;;;;4992314;28;20045;-81
2023/05/10 02:18:33;;;;;;;6.38;4.70;;;;;;;;;;4990386;28;20049;-80
2023/05/10 02:21:02;;;;;;;5.35;4.85;;;;;;;;;;4967320;28;20035;-79
2023/05/10 02:23:51;;;;;;;7.10;5.03;;;;;;;;;;4991894;28;20018;-82
2023/05/10 02:26:40;;;;;;;7.43;4.60;;;;;;;;;;5003918;28;20049;-82
2023/05/10 02:29:08;;;;;;;;;;;;;;;;;;4986787;28;20042;-79
2023/05/10 03:03:27;;;;;;;8.40;6.10;;;;;;;;;;5670119;23;20074;-82
2023/05/10 03:26:45;;;;;;;5.70;5.22;;;;;;;;;;5057977;28;20045;-81
2023/05/10 03:29:48;;;;;;;6.00;4.63;;;;;;;;;;5056351;28;20036;-80
2023/05/10 03:40:35;;;;;;;6.10;5.50;;;;;;;;;;5697917;23;20025;-81
2023/05/10 03:43:15;;;;;;;7.07;4.82;;;;;;;;;;5005139;28;20093;-81
2023/05/10 03:45:41;;;;;;;6.15;5.43;;;;;;;;;;5026591;28;20042;-81
2023/05/10 03:48:07;;;;;;;9.27;5.93;;;;;;;;;;5015959;28;20056;-81
2023/05/10 03:50:49;;;;;;;6.75;6.15;;;;;;;;;;5026849;28;20010;-81
2023/05/10 03:53:40;;;;;;;6.53;5.70;;;;;;;;;;5015284;28;20034;-81
2023/05/10 07:01:11;;;;;;;5.28;2.83;;;;;;;;;;4964242;26;20319;-80
2023/05/10 07:06:11;;;;;;;3.97;3.60;;;;;;;;;;5376631;23;20085;-78
2023/05/10 08:23:30;;;;;;;5.22;4.82;;;;;;;;;;5010369;28;20448;-81
2023/05/10 08:26:04;;;;;;;6.05;4.28;;;;;;;;;;5002992;28;20022;-81
2023/05/10 08:31:13;;;;;;;5.10;4.60;;;;;;;;;;5126921;23;20038;-78
2023/05/10 08:33:53;;;;;;;4.28;3.90;;;;;;;;;;5029959;28;20014;-83
2023/05/10 08:36:21;;;;;;;4.80;4.40;;;;;;;;;;5010997;28;20040;-78
2023/05/10 08:41:25;;;;;;;7.75;4.97;;;;;;;;;;5469791;22;19922;-80
2023/05/10 08:44:03;;;;;;;5.38;4.88;;;;;;;;;;5008998;28;20022;-82
2023/05/10 08:46:31;;;;;;;4.68;4.28;;;;;;;;;;5010445;28;20036;-81
2023/05/10 08:48:59;;;;;;;5.35;4.70;;;;;;;;;;4989233;28;20073;-82
2023/05/10 08:51:27;;;;;;;5.00;4.55;;;;;;;;;;5002948;28;20021;-77
2023/05/10 08:53:52;;;;;;;5.18;4.22;;;;;;;;;;5009954;28;20038;-80
2023/05/10 08:56:24;;;;;;;5.35;4.30;;;;;;;;;;5011660;28;20078;-80
2023/05/10 08:59:01;;;;;;;4.10;3.80;;;;;;;;;;5013311;28;20025;-81
2023/05/10 09:01:42;;;;;;;5.43;4.10;;;;;;;;;;5012460;28;20065;-82
2023/05/10 09:10:09;;;;;;;6.22;3.97;;;;;;;;;;4819833;26;20047;-80
2023/05/10 09:24:02;;;;;;;3.63;3.33;;;;;;;;;;5079090;22;20045;-80
2023/05/10 09:26:30;;;;;;;3.63;3.33;;;;;;;;;;5026833;28;20073;-79
2023/05/10 09:32:06;;;;;;;5.25;3.85;;;;;;;;;;5034377;28;20025;-81
2023/05/10 09:35:03;;;;;;;4.40;3.65;;;;;;;;;;5052530;28;20079;-81
2023/05/10 09:38:10;;;;;;;3.47;3.17;;;;;;;;;;5254330;23;20639;-79
2023/05/10 09:40:57;;;;;;;3.80;3.50;;;;;;;;;;5026943;28;20129;-78
2023/05/10 09:43:39;;;;;;;4.55;3.28;;;;;;;;;;5034524;28;20022;-81
2023/05/10 09:46:11;;;;;;;6.07;3.63;;;;;;;;;;5013240;28;20045;-80
2023/05/10 09:48:48;;;;;;;5.88;3.85;;;;;;;;;;5033807;28;20061;-81
2023/05/10 09:51:23;;;;;;;3.30;3.10;;;;;;;;;;5017368;28;20032;-82
2023/05/10 09:56:49;;;;;;;3.30;3.00;;;;;;;;;;4784631;26;20045;-82
2023/05/10 10:01:51;;;;;;;5.30;3.13;;;;;;;;;;5413385;23;20074;-80
2023/05/10 10:10:00;;;;;;;4.22;3.58;;;;;;;;;;5098289;23;20030;-80
2023/05/10 10:12:30;;;;;;;4.47;3.05;;;;;;;;;;5007791;28;20019;-81
2023/05/10 10:14:57;;;;;;;5.10;3.08;;;;;;;;;;5008121;28;20033;-79
2023/05/10 10:17:24;;;;;;;4.97;2.63;;;;;;;;;;5001118;28;20157;-80
2023/05/10 10:19:55;;;;;;;7.20;2.63;;;;;;;;;;5003694;28;20756;-79
2023/05/10 10:22:22;;;;;;;4.15;2.60;;;;;;;;;;4989845;28;20026;-81
2023/05/10 10:25:24;;;;;;;4.25;2.67;;;;;;;;;;5039684;23;20133;-79
2023/05/10 10:28:10;;;;;;;3.67;2.90;;;;;;;;;;4993441;28;20038;-79
2023/05/10 10:30:39;;;;;;;4.25;2.63;;;;;;;;;;5003642;28;20102;-79
2023/05/10 10:33:24;;;;;;;3.33;2.97;;;;;;;;;;4987734;28;20027;-77
2023/05/10 10:35:55;;;;;;;3.35;2.67;;;;;;;;;;4987037;28;20110;-80
2023/05/10 10:38:24;;;;;;;3.13;2.70;;;;;;;;;;4991886;28;20026;-78
2023/05/10 10:41:25;;;;;;;4.25;2.90;;;;;;;;;;5004322;28;20026;-77
2023/05/10 10:44:26;;;;;;;3.13;2.92;;;;;;;;;;4945158;29;20028;-78
2023/05/10 10:47:02;;;;;;;4.30;3.17;;;;;;;;;;4913616;29;20036;-80
2023/05/10 10:55:33;;;;;;;3.40;2.92;;;;;;;;;;4994890;28;20049;-78
2023/05/10 11:01:12;;;;;;;3.08;2.47;;;;;;;;;;5014381;28;20550;-80
2023/05/10 11:04:19;;;;;;;6.25;3.08;;;;;;;;;;5050973;22;20125;-78
2023/05/10 11:07:38;;;;;;;2.90;2.70;;;;;;;;;;4962350;29;20051;-77
2023/05/10 11:10:36;;;;;;;4.57;3.65;;;;;;;;;;4979570;28;20137;-81
2023/05/10 11:16:23;;;;;;;3.15;2.72;;;;;;;;;;4960818;28;20070;-79
2023/05/10 11:19:07;;;;;;;3.55;3.25;;;;;;;;;;4968650;28;20067;-77
2023/05/10 11:22:09;;;;;;;3.10;2.90;;;;;;;;;;4961307;29;20027;-78
2023/05/10 11:25:00;;;;;;;4.38;3.03;;;;;;;;;;4946085;29;20557;-79
2023/05/10 11:27:51;;;;;;;6.60;3.53;;;;;;;;;;4953369;29;20047;-79
2023/05/10 11:31:04;;;;;;;5.97;4.07;;;;;;;;;;4912414;29;20035;-79
2023/05/10 11:34:03;;;;;;;5.22;3.70;;;;;;;;;;4913047;29;20128;-83
2023/05/10 11:39:56;;;;;;;3.85;3.50;;;;;;;;;;4995820;28;20086;-80
2023/05/10 11:42:35;;;;;;;4.93;3.20;;;;;;;;;;4989654;28;20046;-78
2023/05/10 11:45:11;;;;;;;3.47;3.17;;;;;;;;;;4958069;29;20039;-78
2023/05/10 11:48:22;;;;;;;6.20;3.00;;;;;;;;;;4942676;28;20035;-80
2023/05/10 11:50:48;;;;;;;2.90;2.55;;;;;;;;;;4961689;28;20010;-79
2023/05/10 11:53:23;;;;;;;3.97;2.90;;;;;;;;;;4992803;28;20049;-79
2023/05/10 11:55:48;;;;;;;6.75;3.53;;;;;;;;;;4997292;28;20216;-80
2023/05/10 11:58:13;;;;;;;3.30;3.00;;;;;;;;;;4972319;28;20006;-77
2023/05/10 12:01:03;;;;;;;3.83;3.00;;;;;;;;;;4987932;28;20061;-80
2023/05/10 12:03:37;;;;;;;3.85;2.75;;;;;;;;;;4969592;28;20035;-81
2023/05/10 12:06:15;;;;;;;4.38;3.08;;;;;;;;;;4971755;29;20065;-80
2023/05/10 12:09:10;;;;;;;3.00;2.60;;;;;;;;;;4917017;29;20043;-79
2023/05/10 12:12:05;;;;;;;2.97;2.45;;;;;;;;;;4964336;28;20042;-79
2023/05/10 12:14:42;;;;;;;5.32;2.72;;;;;;;;;;4948830;28;20023;-79
2023/05/10 12:22:58;;;;;;;3.90;3.13;;;;;;;;;;5462978;23;20080;-79
2023/05/10 12:30:55;;;;;;;4.65;3.30;;;;;;;;;;5055764;23;20072;-78
2023/05/10 12:33:29;;;;;;;7.93;3.55;;;;;;;;;;5048020;28;20041;-80
2023/05/10 12:35:56;;;;;;;4.28;3.30;;;;;;;;;;5045346;28;20005;-80
2023/05/10 12:38:54;;;;;;;3.35;3.15;;;;;;;;;;5111238;23;20075;-79
2023/05/10 12:41:20;;;;;;;3.42;3.13;;;;;;;;;;5049483;28;20196;-80
2023/05/10 12:43:49;;;;;;;4.45;3.03;;;;;;;;;;5035415;28;20041;-80
2023/05/10 12:46:27;;;;;;;3.85;3.55;;;;;;;;;;5048778;28;20025;-79
2023/05/10 12:48:54;;;;;;;3.47;3.17;;;;;;;;;;5030339;28;20046;-78
2023/05/10 12:51:21;;;;;;;3.33;3.10;;;;;;;;;;5126469;22;20121;-77
2023/05/10 12:53:50;;;;;;;4.43;3.53;;;;;;;;;;5041339;28;20021;-78
2023/05/10 12:56:26;;;;;;;3.50;3.20;;;;;;;;;;5047307;28;20039;-80
2023/05/10 12:59:26;;;;;;;3.67;3.30;;;;;;;;;;5030073;28;20041;-81
2023/05/10 13:01:51;;;;;;;;;;;;;;;;;;5006511;28;20033;-79
2023/05/10 13:04:19;;;;;;;3.60;3.30;;;;;;;;;;5040504;28;19905;-77
2023/05/10 13:06:44;;;;;;;4.15;2.80;;;;;;;;;;5287939;23;20038;-79
2023/05/10 13:09:10;;;;;;;4.10;3.00;;;;;;;;;;5038589;28;20056;-80
2023/05/10 13:11:38;;;;;;;5.10;3.30;;;;;;;;;;5039031;28;20048;-81
2023/05/10 13:14:07;;;;;;;5.72;3.53;;;;;;;;;;5043364;28;20029;-79
2023/05/10 13:16:34;;;;;;;3.67;3.30;;;;;;;;;;5035527;28;20087;-80
2023/05/10 13:18:59;;;;;;;7.07;3.15;;;;;;;;;;5034436;28;20597;-78
2023/05/10 13:21:25;;;;;;;5.18;3.67;;;;;;;;;;5039830;28;20005;-79
2023/05/10 13:23:50;;;;;;;5.20;3.65;;;;;;;;;;5023249;28;20070;-78
2023/05/10 13:26:17;;;;;;;5.55;3.38;;;;;;;;;;5018460;28;20056;-78
2023/05/10 13:28:45;;;;;;;4.47;4.10;;;;;;;;;;5015955;28;20095;-79
2023/05/10 13:31:12;;;;;;;4.50;4.07;;;;;;;;;;5016392;28;20700;-78
2023/05/10 13:33:38;;;;;;;4.63;3.80;;;;;;;;;;5014113;28;20032;-80
2023/05/10 13:42:41;;;;;;;3.65;3.35;;;;;;;;;;5014840;28;20052;-80
2023/05/10 13:45:28;;;;;;;5.70;3.33;;;;;;;;;;5127981;23;20086;-79
2023/05/10 13:47:53;;;;;;;3.70;3.40;;;;;;;;;;4960762;28;20050;-78
2023/05/10 13:50:19;;;;;;;4.28;3.55;;;;;;;;;;4984052;28;20027;-79
2023/05/10 13:52:46;;;;;;;5.85;3.92;;;;;;;;;;4967594;28;20026;-80
2023/05/10 13:58:39;;;;;;;5.78;3.75;;;;;;;;;;5081099;23;20518;-80
2023/05/10 14:01:44;;;;;;;4.95;3.65;;;;;;;;;;5006306;28;20038;-80
2023/05/10 14:04:20;;;;;;;4.55;3.22;;;;;;;;;;4998400;28;20496;-78
2023/05/10 14:06:59;;;;;;;7.53;3.83;;;;;;;;;;4996179;28;20078;-80
2023/05/10 14:09:28;;;;;;;4.32;3.92;;;;;;;;;;4982073;28;20034;-79
2023/05/10 14:11:56;;;;;;;5.32;4.20;;;;;;;;;;4981771;28;20034;-81
2023/05/10 14:14:21;;;;;;;7.30;3.60;;;;;;;;;;4988224;28;20042;-80
2023/05/10 14:17:10;;;;;;;5.60;3.85;;;;;;;;;;4981374;28;20028;-80
2023/05/10 14:20:00;;;;;;;5.95;4.05;;;;;;;;;;4981025;28;20123;-79
2023/05/10 14:28:33;;;;;;;3.83;3.40;;;;;;;;;;4973464;28;20551;-79
2023/05/10 14:31:10;;;;;;;4.07;3.67;;;;;;;;;;4961060;28;20029;-78
2023/05/10 14:33:41;;;;;;;4.38;3.60;;;;;;;;;;4982303;28;20033;-78
2023/05/10 14:36:11;;;;;;;6.00;3.90;;;;;;;;;;4962606;28;20066;-78
2023/05/10 14:38:43;;;;;;;4.05;3.38;;;;;;;;;;4966569;28;20041;-81
2023/05/10 14:41:14;;;;;;;3.72;3.30;;;;;;;;;;4980908;28;20579;-78
2023/05/10 14:43:40;;;;;;;5.13;3.65;;;;;;;;;;4959517;28;20038;-78
2023/05/10 14:46:08;;;;;;;4.57;3.53;;;;;;;;;;4947854;28;20031;-77
2023/05/10 14:48:33;;;;;;;3.67;3.38;;;;;;;;;;4975908;28;20467;-79
2023/05/10 14:50:59;;;;;;;11.45;7.85;;;;;;;;;;4965401;28;20019;-77
2023/05/10 14:53:36;;;;;;;4.82;3.80;;;;;;;;;;4973293;28;20034;-79
2023/05/10 14:56:02;;;;;;;4.10;3.50;;;;;;;;;;4955427;28;20035;-79
2023/05/10 14:58:30;;;;;;;5.45;3.80;;;;;;;;;;4977592;28;20552;-76
2023/05/10 15:00:57;;;;;;;5.40;3.35;;;;;;;;;;4982079;28;20030;-76
2023/05/10 15:03:22;;;;;;;4.32;3.83;;;;;;;;;;4959978;28;20034;-77
2023/05/10 15:05:47;;;;;;;3.88;3.55;;;;;;;;;;4958505;28;20424;-78
2023/05/10 15:08:13;;;;;;;4.60;4.20;;;;;;;;;;4976231;28;20034;-79
2023/05/10 15:10:58;;;;;;;4.10;3.80;;;;;;;;;;4968132;28;20018;-80
2023/05/10 15:13:34;;;;;;;4.57;4.25;;;;;;;;;;4968563;28;20055;-77
2023/05/10 15:15:59;;;;;;;4.65;4.18;;;;;;;;;;4978270;28;20438;-78
2023/05/10 15:18:27;;;;;;;4.60;4.30;;;;;;;;;;4979121;28;20566;-77
2023/05/10 15:24:02;;;;;;;5.35;4.68;;;;;;;;;;4989680;28;20091;-79
2023/05/10 15:26:31;;;;;;;5.00;4.43;;;;;;;;;;4986709;28;20061;-77
2023/05/10 15:29:03;;;;;;;6.57;5.10;;;;;;;;;;4977829;28;20140;-79
2023/05/10 15:31:49;;;;;;;5.40;4.65;;;;;;;;;;4984485;28;20073;-78
2023/05/10 15:37:31;;;;;;;5.95;5.45;;;;;;;;;;4992807;28;20042;-81
2023/05/10 15:40:03;;;;;;;6.65;5.75;;;;;;;;;;4963911;28;20022;-78
2023/05/10 15:42:31;;;;;;;7.68;5.70;;;;;;;;;;4959966;28;20425;-81
2023/05/10 15:44:59;;;;;;;5.73;5.33;;;;;;;;;;4946510;29;20031;-80
2023/05/10 15:47:45;;;;;;;5.30;4.80;;;;;;;;;;4972435;28;20310;-79
2023/05/10 15:53:34;;;;;;;6.15;5.65;;;;;;;;;;4962675;29;20043;-79
2023/05/10 15:56:00;;;;;;;5.85;5.35;;;;;;;;;;4956152;29;20031;-79
2023/05/10 15:58:25;;;;;;;7.57;5.65;;;;;;;;;;4952039;29;20105;-80
2023/05/10 16:00:51;;;;;;;5.45;4.82;;;;;;;;;;4920982;29;20195;-80
2023/05/10 16:03:17;;;;;;;8.32;5.60;;;;;;;;;;4953736;29;20027;-78
2023/05/10 16:05:44;;;;;;;5.90;5.40;;;;;;;;;;4937511;29;20062;-79
2023/05/10 16:08:10;;;;;;;7.30;5.38;;;;;;;;;;4937771;29;20069;-80
2023/05/10 16:10:35;;;;;;;6.75;6.10;;;;;;;;;;4950691;29;20020;-79
2023/05/10 16:13:02;;;;;;;6.57;5.97;;;;;;;;;;4943480;29;20066;-79
2023/05/10 16:15:39;;;;;;;6.68;6.07;;;;;;;;;;4950972;29;20511;-79
2023/05/10 16:18:04;;;;;;;7.72;5.93;;;;;;;;;;4933113;29;20039;-77
2023/05/10 16:20:31;;;;;;;6.10;5.60;;;;;;;;;;4935175;29;20021;-79
2023/05/10 16:22:58;;;;;;;6.28;5.78;;;;;;;;;;4939044;28;20472;-79
2023/05/10 16:25:33;;;;;;;6.70;5.07;;;;;;;;;;4969123;28;20027;-78
2023/05/10 16:28:01;;;;;;;7.72;5.93;;;;;;;;;;4972601;28;20031;-79
2023/05/10 16:30:29;;;;;;;6.38;5.85;;;;;;;;;;4955938;28;20022;-80
2023/05/10 16:33:17;;;;;;;6.47;5.97;;;;;;;;;;4938579;28;20533;-78
2023/05/10 16:35:42;;;;;;;8.70;5.45;;;;;;;;;;4959846;28;20131;-78
2023/05/10 16:38:10;;;;;;;10.45;5.75;;;;;;;;;;4969395;28;21047;-78
2023/05/10 16:40:35;;;;;;;5.60;5.10;;;;;;;;;;4956858;28;20033;-80
2023/05/10 16:43:00;;;;;;;5.47;5.05;;;;;;;;;;4963048;28;20471;-77
2023/05/10 16:45:25;;;;;;;6.50;5.90;;;;;;;;;;4946700;28;20556;-78
2023/05/10 16:47:52;;;;;;;6.53;5.93;;;;;;;;;;4967994;28;20094;-78
2023/05/10 16:50:17;;;;;;;6.25;5.75;;;;;;;;;;4950887;28;20035;-79
2023/05/10 16:52:48;;;;;;;7.28;5.93;;;;;;;;;;4976237;28;20065;-78
2023/05/10 16:55:33;;;;;;;8.13;5.65;;;;;;;;;;4948185;28;20030;-79
2023/05/10 16:58:03;;;;;;;6.85;6.15;;;;;;;;;;4963220;28;20031;-79
2023/05/10 17:00:46;;;;;;;6.75;6.05;;;;;;;;;;4941984;28;20567;-78
2023/05/10 17:03:15;;;;;;;7.10;6.22;;;;;;;;;;4945100;28;20043;-78
2023/05/10 17:05:43;;;;;;;6.82;6.20;;;;;;;;;;4972374;28;20492;-79
2023/05/10 17:08:12;;;;;;;6.95;6.25;;;;;;;;;;4964039;28;20489;-77
2023/05/10 17:10:48;;;;;;;8.48;6.32;;;;;;;;;;4950970;28;20027;-78
2023/05/10 17:13:19;;;;;;;7.43;6.20;;;;;;;;;;4969934;28;20034;-77
2023/05/10 17:16:11;;;;;;;9.77;6.00;;;;;;;;;;4952718;28;20062;-78
2023/05/10 17:18:39;;;;;;;6.57;5.93;;;;;;;;;;4972091;28;20374;-78
2023/05/10 17:21:10;;;;;;;6.60;6.00;;;;;;;;;;4966871;28;20037;-79
2023/05/10 17:23:36;;;;;;;6.47;5.88;;;;;;;;;;4971545;28;20084;-78
2023/05/10 17:26:04;;;;;;;5.82;5.40;;;;;;;;;;4953082;28;20615;-78
2023/05/10 17:28:34;;;;;;;6.60;6.03;;;;;;;;;;4950081;28;20038;-77
2023/05/10 17:31:01;;;;;;;5.68;5.28;;;;;;;;;;4968647;28;20031;-78
2023/05/10 17:33:26;;;;;;;7.20;6.60;;;;;;;;;;4959468;28;20062;-78
2023/05/10 17:35:52;;;;;;;6.40;5.97;;;;;;;;;;4948651;28;20027;-79
2023/05/10 17:38:21;;;;;;;6.70;6.20;;;;;;;;;;4933525;28;20038;-76
2023/05/10 17:40:46;;;;;;;6.65;6.15;;;;;;;;;;4933441;28;20520;-79
2023/05/10 17:43:35;;;;;;;6.55;5.95;;;;;;;;;;4950424;28;20146;-78
2023/05/10 17:46:14;;;;;;;7.65;6.78;;;;;;;;;;4968814;28;20034;-77
2023/05/10 17:48:43;;;;;;;7.18;6.57;;;;;;;;;;4966850;28;20038;-78
2023/05/10 17:51:14;;;;;;;8.35;6.80;;;;;;;;;;4951886;28;20062;-78
2023/05/10 17:53:43;;;;;;;8.38;7.00;;;;;;;;;;4956679;28;20025;-78
2023/05/10 17:56:10;;;;;;;7.15;6.55;;;;;;;;;;4958123;28;20093;-78
2023/05/10 17:58:37;;;;;;;7.60;7.00;;;;;;;;;;4975717;28;20464;-78
2023/05/10 18:01:09;;;;;;;7.22;6.72;;;;;;;;;;4956815;29;20043;-79
2023/05/10 18:03:35;;;;;;;10.68;8.05;;;;;;;;;;4956425;29;20039;-79
2023/05/10 18:06:06;;;;;;;7.85;7.15;;;;;;;;;;4957503;28;20033;-79
2023/05/10 18:08:32;;;;;;;6.85;6.25;;;;;;;;;;4942537;29;20137;-79
2023/05/10 18:11:16;;;;;;;7.65;6.97;;;;;;;;;;4927338;29;20699;-79
2023/05/10 18:13:43;;;;;;;9.02;7.45;;;;;;;;;;4938496;29;20136;-78
2023/05/10 18:16:11;;;;;;;8.50;7.18;;;;;;;;;;4949209;28;20080;-79
2023/05/10 18:18:53;;;;;;;8.32;7.72;;;;;;;;;;4944062;29;20034;-79
2023/05/10 18:21:27;;;;;;;8.30;7.55;;;;;;;;;;4942151;29;20046;-79
2023/05/10 18:23:54;;;;;;;8.15;7.55;;;;;;;;;;4942039;29;20504;-79
2023/05/10 18:26:47;;;;;;;9.40;8.13;;;;;;;;;;4929393;29;20023;-79
2023/05/10 18:29:19;;;;;;;7.97;7.28;;;;;;;;;;4942380;29;20035;-79
2023/05/10 18:31:46;;;;;;;9.45;8.65;;;;;;;;;;4923656;29;20035;-79
2023/05/10 18:34:11;;;;;;;11.85;8.07;;;;;;;;;;4916502;29;20203;-79
2023/05/10 18:36:43;;;;;;;8.95;8.20;;;;;;;;;;4939297;29;20038;-79
2023/05/10 18:39:35;;;;;;;8.65;7.95;;;;;;;;;;4942749;29;20050;-80
2023/05/10 18:42:19;;;;;;;8.77;8.05;;;;;;;;;;4945610;29;20019;-79
2023/05/10 18:44:45;;;;;;;9.82;8.65;;;;;;;;;;4955961;28;20027;-78
2023/05/10 18:47:11;;;;;;;8.50;7.75;;;;;;;;;;4947703;29;20045;-79
2023/05/10 18:49:41;;;;;;;9.73;8.93;;;;;;;;;;4954588;28;20166;-80
2023/05/10 18:52:07;;;;;;;9.75;8.85;;;;;;;;;;4953848;29;20067;-79
2023/05/10 18:54:35;;;;;;;11.05;10.00;;;;;;;;;;4955688;28;20020;-79
2023/05/10 18:57:01;;;;;;;9.73;8.83;;;;;;;;;;4937261;29;20074;-79
2023/05/10 18:59:26;;;;;;;11.20;9.70;;;;;;;;;;4959422;28;20121;-78
2023/05/10 19:01:53;;;;;;;10.35;9.55;;;;;;;;;;4975442;28;20030;-78
2023/05/10 19:04:21;;;;;;;10.75;9.85;;;;;;;;;;4968360;28;20122;-79
2023/05/10 19:06:46;;;;;;;9.80;9.07;;;;;;;;;;4958093;28;20027;-79
2023/05/10 19:09:11;;;;;;;13.50;10.10;;;;;;;;;;4946611;29;20054;-78
2023/05/10 19:11:39;;;;;;;11.40;9.57;;;;;;;;;;4939318;28;20083;-79
2023/05/10 19:14:11;;;;;;;11.60;10.50;;;;;;;;;;4928156;29;20046;-79
2023/05/10 19:17:08;;;;;;;10.45;9.55;;;;;;;;;;4953425;28;20481;-79
2023/05/10 19:19:40;;;;;;;10.50;9.48;;;;;;;;;;4966110;28;20037;-79
2023/05/10 19:22:07;;;;;;;11.95;10.85;;;;;;;;;;4954258;28;20046;-79
2023/05/10 19:24:51;;;;;;;11.00;10.00;;;;;;;;;;4955084;28;20031;-82
2023/05/10 19:30:16;;;;;;;10.50;9.68;;;;;;;;;;4972317;28;20066;-79
2023/05/10 19:33:02;;;;;;;10.55;9.63;;;;;;;;;;4971992;28;20489;-79
2023/05/10 19:35:52;;;;;;;12.63;11.52;;;;;;;;;;4966926;28;20090;-79
2023/05/10 19:38:33;;;;;;;11.85;10.85;;;;;;;;;;4950201;29;21057;-79
2023/05/10 19:40:59;;;;;;;11.00;10.07;;;;;;;;;;4967712;28;20023;-80
2023/05/10 19:43:45;;;;;;;10.98;10.18;;;;;;;;;;4967482;28;20043;-79
2023/05/10 19:46:13;;;;;;;10.52;9.48;;;;;;;;;;4956408;28;20205;-79
2023/05/10 19:48:40;;;;;;;12.52;11.32;;;;;;;;;;4970477;28;20047;-79
2023/05/10 19:51:06;;;;;;;11.63;10.73;;;;;;;;;;4953545;28;20581;-78
2023/05/10 19:53:31;;;;;;;11.80;10.77;;;;;;;;;;4971343;28;20125;-79
2023/05/10 19:56:06;;;;;;;11.77;10.60;;;;;;;;;;4950290;28;20030;-79
2023/05/10 19:58:42;;;;;;;11.45;10.52;;;;;;;;;;4968989;28;20353;-79
2023/05/10 20:01:13;;;;;;;11.45;10.45;;;;;;;;;;4964785;28;20034;-80
2023/05/10 20:04:02;;;;;;;13.23;11.63;;;;;;;;;;4959418;28;20861;-79
2023/05/10 20:06:27;;;;;;;;;;;;;;;;;;4970844;28;20023;-78
2023/05/10 20:08:53;;;;;;;11.38;10.30;;;;;;;;;;4954293;28;19964;-80
2023/05/10 20:11:40;;;;;;;11.82;10.65;;;;;;;;;;4979819;28;20039;-81
2023/05/10 20:14:10;;;;;;;14.40;11.43;;;;;;;;;;4967218;28;20029;-81
2023/05/10 20:16:44;;;;;;;11.77;10.77;;;;;;;;;;4944124;28;20109;-78
2023/05/10 20:19:11;;;;;;;11.18;10.10;;;;;;;;;;4961199;28;20082;-79
2023/05/10 20:22:04;;;;;;;11.25;10.30;;;;;;;;;;4959218;28;20110;-79
2023/05/10 20:24:49;;;;;;;11.73;10.50;;;;;;;;;;4958314;28;20085;-79
2023/05/10 20:27:16;;;;;;;12.02;10.75;;;;;;;;;;4973045;28;20414;-79
2023/05/10 20:29:55;;;;;;;12.00;10.90;;;;;;;;;;4960977;28;20031;-79
2023/05/10 20:32:27;;;;;;;13.05;12.05;;;;;;;;;;4945284;28;20041;-79
2023/05/10 20:34:58;;;;;;;11.88;10.80;;;;;;;;;;4962698;28;20649;-79
2023/05/10 20:49:55;;;;;;;10.20;9.35;;;;;;;;;;4972336;28;20041;-81
2023/05/10 20:52:25;;;;;;;13.48;12.27;;;;;;;;;;4979745;28;20029;-81
2023/05/10 20:54:52;;;;;;;12.40;11.30;;;;;;;;;;4961858;28;20026;-81
2023/05/10 20:57:18;;;;;;;12.98;11.88;;;;;;;;;;4985467;28;20022;-81
2023/05/10 20:59:44;;;;;;;13.32;12.13;;;;;;;;;;4960637;28;20042;-80
2023/05/10 21:02:09;;;;;;;12.57;11.50;;;;;;;;;;4972461;28;20037;-80
2023/05/10 21:04:35;;;;;;;12.57;11.57;;;;;;;;;;4972411;28;20019;-80
2023/05/10 21:07:02;;;;;;;13.05;12.05;;;;;;;;;;4954125;28;20023;-81
2023/05/10 21:09:27;;;;;;;13.65;12.13;;;;;;;;;;4973998;28;20035;-80
2023/05/10 21:11:53;;;;;;;13.45;12.05;;;;;;;;;;4953228;28;20037;-80
2023/05/10 21:14:19;;;;;;;13.55;12.57;;;;;;;;;;4953137;28;20019;-80
2023/05/10 21:16:44;;;;;;;13.43;12.23;;;;;;;;;;4954123;28;20030;-80
2023/05/10 21:19:10;;;;;;;12.10;11.10;;;;;;;;;;4973755;28;20018;-80
2023/05/10 21:21:35;;;;;;;10.90;10.02;;;;;;;;;;4944563;29;20548;-80
2023/05/10 21:24:01;;;;;;;12.60;11.40;;;;;;;;;;4952048;28;20497;-80
2023/05/10 21:26:34;;;;;;;11.35;10.38;;;;;;;;;;4978704;28;20428;-81
2023/05/10 21:29:19;;;;;;;11.05;10.07;;;;;;;;;;4962280;28;20030;-81
2023/05/10 21:31:44;;;;;;;10.93;10.10;;;;;;;;;;4957846;28;20386;-79
2023/05/10 21:34:10;;;;;;;10.75;9.68;;;;;;;;;;4951846;28;20066;-79
2023/05/10 21:36:38;;;;;;;9.10;8.35;;;;;;;;;;4967675;28;20034;-80
2023/05/10 21:39:04;;;;;;;7.13;6.43;;;;;;;;;;4950747;28;20034;-79
2023/05/10 21:41:29;;;;;;;5.53;5.07;;;;;;;;;;4951733;28;20536;-80
2023/05/10 21:43:55;;;;;;;5.18;4.88;;;;;;;;;;4950084;28;20031;-79
2023/05/10 21:46:26;;;;;;;4.90;4.45;;;;;;;;;;4956048;28;20400;-80
2023/05/10 21:48:52;;;;;;;4.95;4.57;;;;;;;;;;4953837;28;20575;-79
2023/05/10 21:51:18;;;;;;;4.95;4.45;;;;;;;;;;4972628;28;20417;-80
2023/05/10 21:53:43;;;;;;;5.30;4.80;;;;;;;;;;4952189;28;20015;-79
2023/05/10 21:56:09;;;;;;;4.30;4.00;;;;;;;;;;4949070;28;20605;-78
2023/05/10 21:58:34;;;;;;;7.70;4.85;;;;;;;;;;4964889;28;20033;-79
2023/05/10 22:01:00;;;;;;;4.78;4.32;;;;;;;;;;4965734;28;20046;-79
2023/05/10 22:03:25;;;;;;;4.88;4.47;;;;;;;;;;4947552;28;21039;-79
2023/05/10 22:05:50;;;;;;;4.80;3.95;;;;;;;;;;4959346;28;20619;-80
2023/05/10 22:08:16;;;;;;;5.57;4.35;;;;;;;;;;4946497;28;20042;-78
2023/05/10 22:10:47;;;;;;;4.93;4.47;;;;;;;;;;4956508;28;20292;-80
2023/05/10 22:13:22;;;;;;;4.78;4.25;;;;;;;;;;4956155;28;20101;-80
2023/05/10 22:16:01;;;;;;;3.85;3.55;;;;;;;;;;4939444;28;20657;-81
2023/05/10 22:18:27;;;;;;;4.25;3.92;;;;;;;;;;4953286;28;20468;-78
2023/05/10 22:20:52;;;;;;;4.78;3.72;;;;;;;;;;4951460;28;20062;-79
2023/05/10 22:23:17;;;;;;;4.78;4.30;;;;;;;;;;4954495;28;20046;-78
2023/05/10 22:25:43;;;;;;;3.78;3.47;;;;;;;;;;4968692;28;20548;-79
2023/05/10 22:28:09;;;;;;;5.03;3.80;;;;;;;;;;4951799;28;20378;-80
2023/05/10 22:30:34;;;;;;;4.70;4.30;;;;;;;;;;4953255;28;20357;-79
2023/05/10 22:32:59;;;;;;;4.30;4.00;;;;;;;;;;4969362;28;20083;-79
2023/05/10 22:35:24;;;;;;;4.68;4.28;;;;;;;;;;4967931;28;20038;-80